PWSweather.com
Personal Weather Stations
Station Observations

AwhituWaiuku, CA 268400

Lat: -37.058, Lon: -174.6346

Elevation: 250

Station Type: Personal

http://www.weather-display.com/windy/gb/grahamsbeach.htm

Latest ConditionsUpdated 7:30:11 PM GMT-12:48 Tuesday, Sep 16, 2014
Currently Today's Max Today's Min Today's Average
Temperature 54.3°F12.4°C 60.9°F16.1°C 53.4°F11.9°C 56.4°F13.6°C
Dew Point 53.7°F12.1°C 60.3°F15.7°C 52.8°F11.6°C 55.8°F13.2°C
Winds 8.1 mph SW13.0 kmh SW 29.9 mph W48.1 kmh W - 21.0 mph 33.8 kmh
Wind Gusts 9.2 mph14.8 kmh 36.8 mph59.2 kmh - -
Humidity 98% 98% 98% 98%
Pressure 29.97 in1014.9 mb 29.97 in1014.9 mb 29.86 in1011.2 mb -
Hour Temp Dew Point Humidity Winds Wind Gusts Pressure Precip Precip Rate Daily Precip Total
07:30 PM 54.3°F12.4°C 53.7°F12.1°C 98% 8.1 mph SW13.0 kmh SW 9.2 mph14.8 kmh 29.97 in1014.9 mb 0.00 in0.0 mm 0.00 in/hr0.0 mm/hr 0.00 in0.0 mm
07:00 PM 54.6°F12.6°C 54.0°F12.2°C 98% 9.2 mph WSW14.8 kmh WSW 11.5 mph18.5 kmh 29.96 in1014.6 mb 0.00 in0.0 mm 0.00 in/hr0.0 mm/hr 0.00 in0.0 mm
06:30 PM 54.6°F12.6°C 54.0°F12.2°C 98% 10.4 mph WSW16.7 kmh WSW 13.8 mph22.2 kmh 29.95 in1014.2 mb 0.00 in0.0 mm 0.00 in/hr0.0 mm/hr 0.00 in0.0 mm
06:00 PM 54.8°F12.7°C 54.3°F12.4°C 98% 13.8 mph W22.2 kmh W 16.1 mph25.9 kmh 29.94 in1013.9 mb 0.00 in0.0 mm 0.00 in/hr0.0 mm/hr 0.00 in0.0 mm
05:30 PM 54.8°F12.7°C 54.2°F12.3°C 98% 17.3 mph W27.8 kmh W 23.0 mph37.0 kmh 29.93 in1013.5 mb 0.00 in0.0 mm 0.00 in/hr0.0 mm/hr 0.00 in0.0 mm
05:00 PM 56.5°F13.6°C 55.9°F13.3°C 98% 18.4 mph W29.6 kmh W 19.6 mph31.5 kmh 29.92 in1013.2 mb 0.00 in0.0 mm 0.00 in/hr0.0 mm/hr 0.00 in0.0 mm
04:30 PM 58.3°F14.6°C 57.7°F14.3°C 98% 18.4 mph W29.6 kmh W 24.2 mph38.9 kmh 29.91 in1012.9 mb 0.00 in0.0 mm 0.00 in/hr0.0 mm/hr 0.00 in0.0 mm
04:00 PM 56.6°F13.7°C 56.0°F13.3°C 98% 18.4 mph W29.6 kmh W 28.8 mph46.3 kmh 29.90 in1012.5 mb 0.00 in0.0 mm 0.00 in/hr0.0 mm/hr 0.00 in0.0 mm
03:30 PM 59.1°F15.1°C 58.5°F14.7°C 98% 20.7 mph W33.3 kmh W 23.0 mph37.0 kmh 29.90 in1012.5 mb 0.00 in0.0 mm 0.00 in/hr0.0 mm/hr 0.00 in0.0 mm
03:00 PM 58.5°F14.7°C 57.9°F14.4°C 98% 23.0 mph W37.0 kmh W 26.5 mph42.6 kmh 29.89 in1012.2 mb 0.00 in0.0 mm 0.00 in/hr0.0 mm/hr 0.00 in0.0 mm
02:30 PM 60.3°F15.7°C 59.8°F15.4°C 98% 24.2 mph W38.9 kmh W 27.6 mph44.4 kmh 29.90 in1012.5 mb 0.00 in0.0 mm 0.00 in/hr0.0 mm/hr 0.00 in0.0 mm
02:00 PM 60.9°F16.1°C 60.3°F15.7°C 98% 21.9 mph W35.2 kmh W 25.3 mph40.7 kmh 29.90 in1012.5 mb 0.00 in0.0 mm 0.00 in/hr0.0 mm/hr 0.00 in0.0 mm
01:30 PM 60.4°F15.8°C 59.8°F15.4°C 98% 19.6 mph W31.5 kmh W 21.9 mph35.2 kmh 29.90 in1012.5 mb 0.00 in0.0 mm 0.00 in/hr0.0 mm/hr 0.00 in0.0 mm
01:00 PM 60.4°F15.8°C 59.8°F15.4°C 98% 18.4 mph W29.6 kmh W 24.2 mph38.9 kmh 29.90 in1012.5 mb 0.00 in0.0 mm 0.00 in/hr0.0 mm/hr 0.00 in0.0 mm
12:30 PM 60.2°F15.7°C 59.6°F15.3°C 98% 23.0 mph WSW37.0 kmh WSW 31.1 mph50.1 kmh 29.91 in1012.9 mb 0.00 in0.0 mm 0.00 in/hr0.0 mm/hr 0.00 in0.0 mm
12:00 PM 59.5°F15.3°C 58.9°F14.9°C 98% 25.3 mph W40.7 kmh W 29.9 mph48.1 kmh 29.92 in1013.2 mb 0.00 in0.0 mm 0.00 in/hr0.0 mm/hr 0.00 in0.0 mm
11:30 AM 60.2°F15.7°C 59.7°F15.4°C 98% 26.5 mph W42.6 kmh W 32.2 mph51.8 kmh 29.91 in1012.9 mb 0.00 in0.0 mm 0.00 in/hr0.0 mm/hr 0.00 in0.0 mm
11:00 AM 57.8°F14.3°C 57.2°F14.0°C 98% 27.6 mph W44.4 kmh W 31.1 mph50.1 kmh 29.92 in1013.2 mb 0.00 in0.0 mm 0.00 in/hr0.0 mm/hr 0.00 in0.0 mm
10:30 AM 58.7°F14.8°C 58.1°F14.5°C 98% 27.6 mph W44.4 kmh W 29.9 mph48.1 kmh 29.91 in1012.9 mb 0.00 in0.0 mm 0.00 in/hr0.0 mm/hr 0.00 in0.0 mm
10:00 AM 58.3°F14.6°C 57.7°F14.3°C 98% 23.0 mph W37.0 kmh W 25.3 mph40.7 kmh 29.91 in1012.9 mb 0.00 in0.0 mm 0.00 in/hr0.0 mm/hr 0.00 in0.0 mm
09:30 AM 56.4°F13.6°C 55.8°F13.2°C 98% 23.0 mph W37.0 kmh W 27.6 mph44.4 kmh 29.91 in1012.9 mb 0.00 in0.0 mm 0.00 in/hr0.0 mm/hr 0.00 in0.0 mm
09:00 AM 57.1°F13.9°C 56.5°F13.6°C 98% 20.7 mph W33.3 kmh W 27.6 mph44.4 kmh 29.91 in1012.9 mb 0.00 in0.0 mm 0.00 in/hr0.0 mm/hr 0.00 in0.0 mm
08:30 AM 56.2°F13.4°C 55.6°F13.1°C 98% 24.2 mph W38.9 kmh W 25.3 mph40.7 kmh 29.91 in1012.9 mb 0.00 in0.0 mm 0.00 in/hr0.0 mm/hr 0.00 in0.0 mm
08:00 AM 54.9°F12.7°C 54.3°F12.4°C 98% 18.4 mph W29.6 kmh W 23.0 mph37.0 kmh 29.91 in1012.9 mb 0.00 in0.0 mm 0.00 in/hr0.0 mm/hr 0.00 in0.0 mm
07:30 AM 53.4°F11.9°C 52.8°F11.6°C 98% 18.4 mph WSW29.6 kmh WSW 20.7 mph33.3 kmh 29.91 in1012.9 mb 0.00 in0.0 mm 0.00 in/hr0.0 mm/hr 0.00 in0.0 mm
07:00 AM 54.5°F12.5°C 54.0°F12.2°C 98% 29.9 mph W48.1 kmh W 36.8 mph59.2 kmh 29.89 in1012.2 mb 0.00 in0.0 mm 0.00 in/hr0.0 mm/hr 0.00 in0.0 mm
06:30 AM 54.5°F12.5°C 53.9°F12.2°C 98% 18.4 mph WNW29.6 kmh WNW 19.6 mph31.5 kmh 29.88 in1011.9 mb 0.00 in0.0 mm 0.00 in/hr0.0 mm/hr 0.00 in0.0 mm
05:30 AM 53.5°F11.9°C 52.9°F11.6°C 98% 20.7 mph W33.3 kmh W 26.5 mph42.6 kmh 29.87 in1011.5 mb 0.00 in0.0 mm 0.00 in/hr0.0 mm/hr 0.00 in0.0 mm
05:00 AM 54.8°F12.7°C 54.2°F12.3°C 98% 26.5 mph W42.6 kmh W 33.4 mph53.8 kmh 29.86 in1011.2 mb 0.00 in0.0 mm 0.00 in/hr0.0 mm/hr 0.00 in0.0 mm
04:30 AM 54.2°F12.3°C 53.7°F12.1°C 98% 23.0 mph W37.0 kmh W 26.5 mph42.6 kmh 29.86 in1011.2 mb 0.00 in0.0 mm 0.00 in/hr0.0 mm/hr 0.00 in0.0 mm
04:00 AM 54.5°F12.5°C 54.0°F12.2°C 98% 21.9 mph W35.2 kmh W 21.9 mph35.2 kmh 29.86 in1011.2 mb 0.00 in0.0 mm 0.00 in/hr0.0 mm/hr 0.00 in0.0 mm
03:30 AM 54.5°F12.5°C 53.9°F12.2°C 98% 21.9 mph W35.2 kmh W 21.9 mph35.2 kmh 29.86 in1011.2 mb 0.00 in0.0 mm 0.00 in/hr0.0 mm/hr 0.00 in0.0 mm
03:00 AM 55.1°F12.8°C 54.5°F12.5°C 98% 21.9 mph WSW35.2 kmh WSW 21.9 mph35.2 kmh 29.86 in1011.2 mb 0.00 in0.0 mm 0.00 in/hr0.0 mm/hr 0.00 in0.0 mm
02:30 AM 55.1°F12.8°C 54.5°F12.5°C 98% 21.9 mph WNW35.2 kmh WNW 21.9 mph35.2 kmh 29.86 in1011.2 mb 0.00 in0.0 mm 0.00 in/hr0.0 mm/hr 0.00 in0.0 mm
02:00 AM 55.0°F12.8°C 54.4°F12.4°C 98% 21.9 mph W35.2 kmh W 21.9 mph35.2 kmh 29.86 in1011.2 mb 0.00 in0.0 mm 0.00 in/hr0.0 mm/hr 0.00 in0.0 mm
01:30 AM 54.2°F12.3°C 53.6°F12.0°C 98% 21.9 mph W35.2 kmh W 21.9 mph35.2 kmh 29.87 in1011.5 mb 0.00 in0.0 mm 0.00 in/hr0.0 mm/hr 0.00 in0.0 mm
01:00 AM 54.5°F12.5°C 53.9°F12.2°C 98% 21.9 mph W35.2 kmh W 21.9 mph35.2 kmh 29.86 in1011.2 mb 0.00 in0.0 mm 0.00 in/hr0.0 mm/hr 0.00 in0.0 mm
12:30 AM 54.5°F12.5°C 53.9°F12.2°C 98% 21.9 mph WSW35.2 kmh WSW 21.9 mph35.2 kmh 29.86 in1011.2 mb 0.00 in0.0 mm 0.00 in/hr0.0 mm/hr 0.00 in0.0 mm
12:00 AM 54.1°F12.3°C 53.6°F12.0°C 98% 24.2 mph W38.9 kmh W 31.1 mph50.1 kmh 29.86 in1011.2 mb 0.00 in0.0 mm 0.00 in/hr0.0 mm/hr 0.00 in0.0 mm